createdAt,value
2018-02-08T00:01:31.373Z,18.00
2018-02-08T00:03:58.843Z,15.70
2018-02-08T00:06:26.329Z,16.30
2018-02-08T00:08:53.800Z,17.93
2018-02-08T00:11:21.250Z,17.87
2018-02-08T00:13:48.706Z,18.20
2018-02-08T00:16:16.588Z,17.27
2018-02-08T00:18:44.051Z,19.83
2018-02-08T00:21:11.506Z,16.33
2018-02-08T00:23:38.965Z,15.83
2018-02-08T00:26:06.451Z,16.13
2018-02-08T00:28:33.892Z,17.57
2018-02-08T00:31:01.351Z,17.80
2018-02-08T00:33:28.822Z,18.20
2018-02-08T00:35:56.270Z,16.77
2018-02-08T00:38:23.709Z,16.00
2018-02-08T00:40:51.949Z,17.30
2018-02-08T00:43:19.396Z,16.43
2018-02-08T00:45:46.869Z,16.13
2018-02-08T00:48:14.308Z,17.93
2018-02-08T00:50:41.761Z,17.90
2018-02-08T00:53:09.242Z,17.33
2018-02-08T00:55:36.698Z,18.73
2018-02-08T00:58:04.160Z,17.77
2018-02-08T01:00:31.632Z,19.40
2018-02-08T01:02:59.089Z,15.97
2018-02-08T01:05:26.552Z,18.60
2018-02-08T01:10:28.653Z,16.03
2018-02-08T01:12:56.115Z,17.67
2018-02-08T01:15:23.564Z,17.47
2018-02-08T01:17:51.018Z,17.90
2018-02-08T01:20:18.480Z,18.67
2018-02-08T01:22:45.964Z,17.70
2018-02-08T01:25:13.428Z,18.33
2018-02-08T01:27:40.897Z,17.40
2018-02-08T01:30:08.466Z,16.33
2018-02-08T01:32:35.913Z,19.37
2018-02-08T01:35:03.369Z,18.23
2018-02-08T01:37:30.820Z,19.57
2018-02-08T01:39:58.290Z,18.53
2018-02-08T01:42:25.758Z,18.47
2018-02-08T01:44:53.208Z,17.53
2018-02-08T01:47:20.675Z,19.13
2018-02-08T01:49:48.151Z,18.00
2018-02-08T01:52:15.630Z,16.77
2018-02-08T01:54:43.133Z,17.73
2018-02-08T01:57:10.595Z,18.83
2018-02-08T01:59:38.812Z,18.80
2018-02-08T02:02:06.272Z,17.50
2018-02-08T02:04:33.722Z,19.37
2018-02-08T02:07:01.179Z,18.97
2018-02-08T02:09:28.662Z,17.87
2018-02-08T02:11:56.128Z,19.20
2018-02-08T02:14:23.585Z,18.37
2018-02-08T02:16:51.069Z,19.90
2018-02-08T02:19:18.538Z,17.20
2018-02-08T02:21:46.006Z,18.40
2018-02-08T02:24:13.637Z,18.03
2018-02-08T02:26:41.106Z,17.77
2018-02-08T02:29:08.566Z,19.80
2018-02-08T02:31:36.031Z,18.30
2018-02-08T02:34:03.553Z,18.53
2018-02-08T02:36:31.013Z,19.90
2018-02-08T02:38:58.464Z,20.17
2018-02-08T02:41:25.929Z,17.63
2018-02-08T02:43:53.396Z,19.40
2018-02-08T02:46:20.853Z,18.03
2018-02-08T02:48:48.325Z,18.90
2018-02-08T02:51:15.791Z,17.90
2018-02-08T02:53:43.254Z,18.67
2018-02-08T02:56:10.702Z,17.07
2018-02-08T02:58:38.157Z,19.33
2018-02-08T03:01:05.632Z,16.83
2018-02-08T03:03:33.109Z,21.77
2018-02-08T03:06:01.324Z,20.03
2018-02-08T03:08:28.790Z,19.50
2018-02-08T03:10:56.249Z,19.03
2018-02-08T03:13:23.719Z,20.83
2018-02-08T03:15:51.180Z,18.50
2018-02-08T03:18:18.661Z,19.17
2018-02-08T03:20:46.125Z,17.30
2018-02-08T03:23:13.604Z,17.47
2018-02-08T03:25:41.093Z,21.90
2018-02-08T03:28:09.305Z,20.60
2018-02-08T03:30:36.806Z,19.27
2018-02-08T03:33:04.248Z,19.90
2018-02-08T03:35:31.699Z,19.80
2018-02-08T03:37:59.157Z,19.83
2018-02-08T03:40:26.611Z,20.97
2018-02-08T03:42:54.070Z,20.13
2018-02-08T03:45:21.531Z,19.50
2018-02-08T03:47:48.977Z,19.53
2018-02-08T03:50:17.239Z,20.83
2018-02-08T03:52:45.112Z,20.50
2018-02-08T03:55:12.578Z,17.83
2018-02-08T03:57:40.037Z,17.90
2018-02-08T04:00:07.493Z,20.90
2018-02-08T04:02:35.320Z,17.93
2018-02-08T04:05:02.771Z,18.43
2018-02-08T04:07:30.989Z,21.10
2018-02-08T04:09:58.453Z,17.50
2018-02-08T04:12:25.902Z,21.37
2018-02-08T04:14:53.385Z,20.43
2018-02-08T04:17:20.844Z,21.33
2018-02-08T04:22:22.211Z,20.43
2018-02-08T04:24:49.675Z,21.50
2018-02-08T04:27:17.133Z,19.30
2018-02-08T04:29:44.598Z,20.20
2018-02-08T04:32:12.060Z,20.20
2018-02-08T04:34:39.511Z,20.97
2018-02-08T04:37:06.955Z,18.60
2018-02-08T04:39:46.089Z,16.57
2018-02-08T04:42:25.528Z,18.63
2018-02-08T04:45:05.034Z,21.30
2018-02-08T04:47:54.887Z,20.53
2018-02-08T04:50:22.339Z,19.57
2018-02-08T04:52:49.829Z,19.40
2018-02-08T04:55:18.047Z,19.73
2018-02-08T04:57:45.508Z,21.17
2018-02-08T05:00:12.965Z,20.00
2018-02-08T05:02:40.416Z,19.83
2018-02-08T05:05:08.648Z,18.57
2018-02-08T05:07:36.106Z,18.73
2018-02-08T05:10:03.616Z,22.77
2018-02-08T05:12:31.031Z,20.90
2018-02-08T05:14:58.495Z,18.50
2018-02-08T05:17:26.713Z,21.60
2018-02-08T05:19:54.934Z,17.60
2018-02-08T05:22:22.411Z,20.00
2018-02-08T05:24:49.864Z,22.03
2018-02-08T05:27:17.322Z,21.47
2018-02-08T05:29:44.795Z,19.90
2018-02-08T05:32:12.264Z,23.60
2018-02-08T05:34:39.717Z,20.50
2018-02-08T05:37:07.180Z,21.33
2018-02-08T05:39:34.643Z,20.93
2018-02-08T05:42:02.091Z,20.30
2018-02-08T05:44:29.553Z,20.70
2018-02-08T05:46:57.018Z,22.17
2018-02-08T05:49:24.462Z,19.77
2018-02-08T05:51:51.928Z,19.57
2018-02-08T05:54:19.410Z,21.13
2018-02-08T05:56:46.922Z,19.63
2018-02-08T05:59:14.381Z,20.37
2018-02-08T06:01:41.854Z,21.67
2018-02-08T06:04:10.088Z,22.40
2018-02-08T06:06:37.564Z,22.67
2018-02-08T06:09:05.016Z,20.13
2018-02-08T06:11:32.524Z,21.40
2018-02-08T06:14:00.747Z,23.73
2018-02-08T06:16:28.211Z,22.20
2018-02-08T06:18:55.674Z,24.20
2018-02-08T06:21:23.138Z,28.12
2018-02-08T06:23:50.640Z,26.20
2018-02-08T06:26:18.084Z,25.77
2018-02-08T06:28:45.543Z,24.37
2018-02-08T06:31:12.999Z,22.50
2018-02-08T06:33:40.475Z,23.17
2018-02-08T06:36:07.957Z,23.07
2018-02-08T06:38:35.420Z,25.40
2018-02-08T06:41:02.862Z,23.87
2018-02-08T06:43:30.337Z,23.97
2018-02-08T06:45:57.801Z,23.73
2018-02-08T06:48:25.276Z,22.53
2018-02-08T06:50:52.716Z,23.70
2018-02-08T06:53:20.175Z,21.37
2018-02-08T06:55:47.630Z,21.83
2018-02-08T06:58:15.211Z,23.53
2018-02-08T07:00:42.648Z,21.23
2018-02-08T07:03:10.099Z,25.17
2018-02-08T07:05:37.561Z,23.37
2018-02-08T07:08:05.007Z,24.10
2018-02-08T07:10:32.468Z,25.57
2018-02-08T07:12:59.934Z,24.00
2018-02-08T07:15:27.379Z,22.17
2018-02-08T07:17:55.623Z,24.03
2018-02-08T07:20:23.063Z,22.33
2018-02-08T07:22:50.537Z,24.93
2018-02-08T07:25:17.994Z,22.77
2018-02-08T07:27:45.447Z,21.13
2018-02-08T07:30:12.916Z,23.67
2018-02-08T07:32:40.379Z,25.87
2018-02-08T07:35:08.595Z,26.00
2018-02-08T07:37:36.074Z,23.97
2018-02-08T07:40:04.294Z,25.73
2018-02-08T07:42:31.751Z,21.90
2018-02-08T07:44:59.208Z,25.40
2018-02-08T07:47:26.774Z,23.37
2018-02-08T07:49:54.230Z,25.07
2018-02-08T07:52:21.679Z,26.27
2018-02-08T07:54:50.114Z,23.53
2018-02-08T07:57:17.587Z,24.07
2018-02-08T07:59:45.054Z,24.87
2018-02-08T08:02:12.499Z,23.60
2018-02-08T08:04:39.978Z,23.30
2018-02-08T08:07:07.443Z,26.57
2018-02-08T08:09:34.919Z,22.97
2018-02-08T08:12:02.454Z,23.70
2018-02-08T08:14:29.906Z,23.27
2018-02-08T08:16:57.367Z,25.43
2018-02-08T08:19:24.832Z,23.67
2018-02-08T08:21:52.290Z,24.20
2018-02-08T08:24:19.775Z,27.20
2018-02-08T08:26:47.236Z,24.40
2018-02-08T08:29:14.703Z,27.15
2018-02-08T08:31:42.167Z,25.07
2018-02-08T08:34:09.631Z,21.97
2018-02-08T08:36:37.080Z,23.87
2018-02-08T08:39:04.514Z,25.30
2018-02-08T08:41:31.992Z,24.03
2018-02-08T08:43:59.452Z,21.77
2018-02-08T08:46:26.903Z,24.87
2018-02-08T08:48:54.413Z,23.37
2018-02-08T08:51:21.835Z,22.60
2018-02-08T08:53:49.300Z,28.60
2018-02-08T08:56:16.754Z,22.03
2018-02-08T08:58:44.208Z,23.20
2018-02-08T09:01:11.657Z,24.77
2018-02-08T09:03:39.900Z,25.03
2018-02-08T09:06:07.377Z,23.87
2018-02-08T09:08:34.857Z,24.93
2018-02-08T09:11:03.089Z,22.83
2018-02-08T09:13:30.535Z,30.30
2018-02-08T09:15:57.999Z,25.70
2018-02-08T09:18:25.453Z,22.27
2018-02-08T09:20:52.904Z,23.80
2018-02-08T09:23:20.361Z,23.83
2018-02-08T09:25:47.833Z,25.77
2018-02-08T09:28:15.315Z,26.27
2018-02-08T09:30:42.752Z,24.83
2018-02-08T09:33:10.235Z,24.93
2018-02-08T09:35:37.694Z,25.57
2018-02-08T09:38:05.181Z,23.60
2018-02-08T09:40:32.623Z,25.57
2018-02-08T09:43:00.061Z,21.77
2018-02-08T09:45:27.523Z,23.83
2018-02-08T09:47:55.767Z,23.67
2018-02-08T09:50:23.203Z,25.10
2018-02-08T09:52:50.650Z,25.57
2018-02-08T09:55:18.095Z,27.00
2018-02-08T09:57:46.316Z,26.03
2018-02-08T10:00:13.773Z,28.83
2018-02-08T10:02:41.982Z,26.30
2018-02-08T10:05:09.430Z,25.67
2018-02-08T10:07:36.970Z,28.50
2018-02-08T10:10:04.421Z,28.43
2018-02-08T10:12:31.891Z,28.63
2018-02-08T10:14:59.368Z,25.40
2018-02-08T10:17:26.824Z,27.67
2018-02-08T10:19:54.274Z,24.03
2018-02-08T10:22:21.722Z,27.17
2018-02-08T10:24:49.180Z,24.97
2018-02-08T10:27:17.404Z,30.27
2018-02-08T10:29:44.863Z,29.40
2018-02-08T10:32:12.384Z,30.13
2018-02-08T10:34:40.606Z,27.70
2018-02-08T10:37:08.065Z,31.93
2018-02-08T10:39:35.515Z,24.60
2018-02-08T10:42:02.965Z,29.47
2018-02-08T10:44:30.421Z,30.60
2018-02-08T10:46:57.880Z,26.50
2018-02-08T10:49:26.094Z,28.00
2018-02-08T10:51:53.543Z,29.53
2018-02-08T10:54:21.003Z,29.57
2018-02-08T10:56:48.445Z,27.37
2018-02-08T10:59:16.663Z,26.40
2018-02-08T11:01:44.872Z,29.27
2018-02-08T11:04:12.328Z,26.73
2018-02-08T11:06:39.777Z,26.30
2018-02-08T11:09:07.239Z,24.17
2018-02-08T11:11:34.692Z,27.83
2018-02-08T11:14:02.142Z,27.30
2018-02-08T11:16:29.569Z,27.80
2018-02-08T11:18:57.802Z,25.50
2018-02-08T11:21:25.276Z,29.57
2018-02-08T11:23:52.715Z,29.93
2018-02-08T11:26:20.220Z,27.80
2018-02-08T11:28:47.642Z,26.43
2018-02-08T11:31:15.090Z,29.17
2018-02-08T11:33:42.525Z,26.57
2018-02-08T11:36:10.749Z,28.37
2018-02-08T11:38:38.199Z,27.30
2018-02-08T11:41:05.725Z,26.63
2018-02-08T11:43:33.187Z,29.90
2018-02-08T11:46:00.621Z,25.97
2018-02-08T11:48:28.088Z,27.33
2018-02-08T11:50:55.542Z,28.17
2018-02-08T11:53:23.000Z,26.60
2018-02-08T11:55:50.442Z,26.23
2018-02-08T11:58:17.925Z,28.03
2018-02-08T12:00:45.388Z,28.53
2018-02-08T12:03:12.819Z,28.67
2018-02-08T12:05:40.284Z,26.60
2018-02-08T12:08:07.756Z,28.93
2018-02-08T12:10:35.221Z,31.90
2018-02-08T12:13:02.680Z,26.60
2018-02-08T12:15:30.172Z,28.37
2018-02-08T12:17:57.636Z,25.30
2018-02-08T12:20:25.090Z,26.17
2018-02-08T12:22:52.551Z,28.23
2018-02-08T12:25:20.019Z,21.10
2018-02-08T12:27:47.479Z,19.90
2018-02-08T12:30:15.021Z,21.20
2018-02-08T12:32:42.452Z,21.83
2018-02-08T12:35:09.918Z,22.20
2018-02-08T12:37:38.149Z,19.00
2018-02-08T12:40:05.619Z,21.13
2018-02-08T12:42:33.100Z,23.17
2018-02-08T12:45:00.553Z,21.63
2018-02-08T12:47:28.012Z,21.23
2018-02-08T12:49:55.477Z,18.27
2018-02-08T12:52:22.921Z,17.20
2018-02-08T12:54:50.396Z,19.20
2018-02-08T12:57:17.848Z,17.10
2018-02-08T12:59:45.307Z,17.27
2018-02-08T13:02:12.770Z,18.80
2018-02-08T13:04:40.231Z,18.63
2018-02-08T13:07:07.692Z,18.13
2018-02-08T13:09:35.139Z,14.80
2018-02-08T13:12:02.619Z,16.27
2018-02-08T13:14:30.094Z,11.60
2018-02-08T13:16:57.554Z,13.97
2018-02-08T13:19:25.032Z,12.73
2018-02-08T13:21:52.498Z,16.20
2018-02-08T13:24:19.952Z,12.93
2018-02-08T13:26:47.408Z,13.40
2018-02-08T13:29:14.879Z,11.13
2018-02-08T13:31:43.133Z,12.23
2018-02-08T13:34:10.625Z,14.20
2018-02-08T13:36:38.060Z,11.33
2018-02-08T13:39:05.912Z,10.97
2018-02-08T13:41:34.556Z,11.93
2018-02-08T13:44:02.015Z,11.07
2018-02-08T13:46:29.467Z,10.07
2018-02-08T13:49:11.806Z,10.87
2018-02-08T13:51:45.717Z,10.93
2018-02-08T13:54:17.564Z,12.33
2018-02-08T13:56:45.447Z,9.20
2018-02-08T13:59:23.566Z,10.30
2018-02-08T14:01:56.428Z,11.80
2018-02-08T14:04:23.875Z,9.33
2018-02-08T14:06:51.345Z,10.13
2018-02-08T14:09:18.815Z,9.23
2018-02-08T14:11:46.276Z,11.50
2018-02-08T14:14:13.748Z,9.73
2018-02-08T14:16:41.215Z,9.80
2018-02-08T14:19:08.674Z,9.90
2018-02-08T14:21:36.146Z,10.43
2018-02-08T14:24:04.387Z,10.93
2018-02-08T14:26:31.848Z,9.43
2018-02-08T14:28:59.313Z,12.37
2018-02-08T14:31:26.762Z,10.73
2018-02-08T14:33:54.214Z,8.70
2018-02-08T14:36:21.677Z,9.43
2018-02-08T14:38:49.131Z,9.20
2018-02-08T14:41:16.590Z,10.07
2018-02-08T14:43:44.030Z,9.87
2018-02-08T14:46:12.259Z,8.93
2018-02-08T14:48:39.747Z,9.90
2018-02-08T14:51:07.206Z,9.70
2018-02-08T14:53:34.666Z,9.10
2018-02-08T14:56:02.126Z,10.00
2018-02-08T14:58:29.573Z,9.67
2018-02-08T15:00:57.041Z,7.53
2018-02-08T15:03:24.487Z,8.53
2018-02-08T15:05:51.935Z,8.53
2018-02-08T15:08:19.383Z,8.93
2018-02-08T15:10:47.595Z,6.97
2018-02-08T15:13:15.052Z,7.13
2018-02-08T15:15:42.507Z,10.40
2018-02-08T15:18:09.975Z,9.20
2018-02-08T15:20:37.421Z,7.87
2018-02-08T15:23:04.885Z,7.27
2018-02-08T15:25:32.342Z,6.97
2018-02-08T15:28:00.578Z,10.23
2018-02-08T15:30:28.054Z,10.87
2018-02-08T15:32:55.518Z,7.33
2018-02-08T15:35:22.984Z,8.40
2018-02-08T15:37:51.227Z,8.37
2018-02-08T15:40:18.710Z,8.00
2018-02-08T15:42:46.153Z,9.50
2018-02-08T15:45:13.663Z,7.00
2018-02-08T15:47:41.133Z,7.67
2018-02-08T15:50:08.580Z,8.70
2018-02-08T15:52:36.014Z,7.33
2018-02-08T15:55:03.500Z,7.77
2018-02-08T15:57:30.915Z,7.03
2018-02-08T15:59:58.394Z,8.27
2018-02-08T16:02:25.874Z,7.67
2018-02-08T16:04:53.315Z,7.70
2018-02-08T16:07:20.774Z,9.57
2018-02-08T16:09:48.246Z,8.40
2018-02-08T16:12:15.734Z,7.33
2018-02-08T16:14:43.195Z,6.63
2018-02-08T16:17:10.658Z,7.47
2018-02-08T16:19:38.129Z,9.60
2018-02-08T16:22:05.548Z,8.00
2018-02-08T16:24:33.022Z,9.43
2018-02-08T16:27:00.462Z,7.03
2018-02-08T16:29:27.914Z,8.70
2018-02-08T16:31:55.367Z,8.10
2018-02-08T16:34:23.566Z,9.97
2018-02-08T16:36:51.031Z,7.50
2018-02-08T16:39:18.479Z,9.10
2018-02-08T16:41:45.943Z,9.00
2018-02-08T16:44:13.397Z,11.67
2018-02-08T16:46:41.631Z,11.47
2018-02-08T16:49:09.086Z,9.43
2018-02-08T16:51:36.556Z,7.47
2018-02-08T16:54:04.091Z,9.77
2018-02-08T16:56:31.580Z,10.57
2018-02-08T16:58:59.015Z,9.77
2018-02-08T17:01:26.453Z,9.73
2018-02-08T17:03:54.672Z,8.83
2018-02-08T17:06:22.120Z,9.27
2018-02-08T17:08:49.593Z,8.70
2018-02-08T17:11:17.049Z,8.50
2018-02-08T17:13:44.505Z,7.50
2018-02-08T17:16:11.955Z,10.33
2018-02-08T17:18:39.561Z,11.63
2018-02-08T17:21:07.768Z,7.87
2018-02-08T17:23:35.230Z,8.67
2018-02-08T17:26:02.685Z,8.87
2018-02-08T17:28:30.139Z,8.60
2018-02-08T17:30:57.598Z,8.00
2018-02-08T17:33:25.079Z,10.27
2018-02-08T17:35:52.513Z,8.10
2018-02-08T17:38:19.991Z,8.23
2018-02-08T17:40:47.434Z,7.53
2018-02-08T17:43:14.893Z,9.27
2018-02-08T17:45:43.116Z,8.33
2018-02-08T17:48:10.598Z,9.10
2018-02-08T17:50:38.435Z,8.93
2018-02-08T17:53:06.680Z,7.37
2018-02-08T17:55:34.134Z,8.47
2018-02-08T17:58:01.597Z,7.43
2018-02-08T18:00:29.033Z,12.57
2018-02-08T18:02:57.249Z,10.70
2018-02-08T18:05:24.710Z,8.93
2018-02-08T18:07:52.539Z,7.00
2018-02-08T18:10:20.753Z,8.30
2018-02-08T18:12:48.173Z,8.50
2018-02-08T18:15:15.677Z,10.67
2018-02-08T18:17:43.080Z,10.73
2018-02-08T18:20:10.533Z,10.50
2018-02-08T18:22:38.002Z,7.73
2018-02-08T18:25:05.459Z,8.17
2018-02-08T18:27:32.947Z,7.07
2018-02-08T18:30:00.404Z,8.60
2018-02-08T18:32:27.856Z,7.73
2018-02-08T18:34:55.336Z,9.17
2018-02-08T18:37:22.830Z,7.40
2018-02-08T18:39:50.248Z,8.50
2018-02-08T18:42:17.720Z,7.90
2018-02-08T18:44:45.179Z,8.10
2018-02-08T18:47:12.634Z,9.85
2018-02-08T18:49:40.130Z,12.17
2018-02-08T18:52:08.359Z,11.80
2018-02-08T18:54:35.824Z,9.43
2018-02-08T18:57:03.278Z,12.13
2018-02-08T18:59:30.816Z,16.70
2018-02-08T19:01:58.289Z,13.13
2018-02-08T19:04:25.781Z,10.97
2018-02-08T19:06:53.272Z,11.40
2018-02-08T19:09:20.751Z,9.90
2018-02-08T19:11:48.231Z,11.17
2018-02-08T19:14:16.466Z,9.77
2018-02-08T19:16:43.946Z,9.13
2018-02-08T19:19:11.402Z,10.77
2018-02-08T19:21:41.293Z,11.40
2018-02-08T19:24:08.775Z,11.63
2018-02-08T19:26:36.294Z,15.13
2018-02-08T19:29:04.865Z,10.43
2018-02-08T19:31:33.193Z,9.90
2018-02-08T19:34:00.839Z,11.57
2018-02-08T19:36:28.289Z,11.53
2018-02-08T19:38:55.752Z,11.93
2018-02-08T19:41:23.312Z,12.67
2018-02-08T19:43:51.508Z,11.87
2018-02-08T19:46:18.968Z,10.70
2018-02-08T19:48:46.434Z,15.37
2018-02-08T19:51:13.892Z,13.37
2018-02-08T19:53:41.368Z,13.43
2018-02-08T19:56:08.853Z,13.97
2018-02-08T19:58:36.325Z,13.03
2018-02-08T20:01:03.843Z,11.97
2018-02-08T20:03:31.289Z,12.73
2018-02-08T20:05:59.551Z,15.60
2018-02-08T20:08:27.007Z,12.17
2018-02-08T20:10:54.468Z,14.17
2018-02-08T20:13:21.920Z,14.27
2018-02-08T20:15:49.388Z,12.73
2018-02-08T20:18:16.891Z,14.57
2018-02-08T20:20:44.405Z,13.80
2018-02-08T20:23:11.880Z,16.00
2018-02-08T20:25:44.172Z,12.63
2018-02-08T20:28:12.392Z,16.50
2018-02-08T20:30:39.847Z,16.17
2018-02-08T20:33:07.293Z,13.50
2018-02-08T20:35:34.738Z,13.67
2018-02-08T20:38:02.977Z,12.97
2018-02-08T20:40:30.457Z,18.07
2018-02-08T20:43:03.540Z,13.80
2018-02-08T20:45:30.995Z,15.53
2018-02-08T20:47:58.476Z,14.53
2018-02-08T20:50:26.006Z,14.83
2018-02-08T20:52:53.476Z,15.27
2018-02-08T20:55:20.926Z,13.40
2018-02-08T20:57:48.366Z,15.10
2018-02-08T21:00:15.846Z,14.97
2018-02-08T21:02:43.306Z,15.83
2018-02-08T21:05:10.777Z,15.27
2018-02-08T21:07:38.230Z,17.87
2018-02-08T21:10:05.693Z,14.50
2018-02-08T21:12:33.176Z,21.37
2018-02-08T21:15:00.636Z,13.40
2018-02-08T21:17:28.865Z,15.93
2018-02-08T21:19:56.370Z,15.93
2018-02-08T21:22:23.849Z,19.33
2018-02-08T21:24:51.315Z,17.83
2018-02-08T21:27:18.779Z,15.97
2018-02-08T21:29:46.258Z,17.97
2018-02-08T21:32:13.767Z,17.20
2018-02-08T21:34:41.271Z,16.40
2018-02-08T21:37:08.909Z,19.10
2018-02-08T21:39:36.367Z,16.17
2018-02-08T21:42:03.852Z,15.97
2018-02-08T21:44:31.305Z,18.17
2018-02-08T21:46:58.770Z,15.80
2018-02-08T21:49:26.223Z,18.07
2018-02-08T21:51:53.740Z,18.00
2018-02-08T21:54:21.198Z,19.53
2018-02-08T21:56:48.664Z,17.87
2018-02-08T21:59:16.137Z,16.93
2018-02-08T22:01:44.413Z,18.67
2018-02-08T22:04:11.888Z,19.77
2018-02-08T22:06:40.146Z,19.03
2018-02-08T22:09:07.612Z,19.03
2018-02-08T22:11:35.107Z,19.13
2018-02-08T22:14:03.330Z,20.30
2018-02-08T22:16:30.801Z,19.27
2018-02-08T22:18:58.283Z,19.13
2018-02-08T22:21:25.728Z,18.40
2018-02-08T22:23:53.180Z,18.50
2018-02-08T22:26:21.456Z,20.10
2018-02-08T22:28:48.921Z,20.43
2018-02-08T22:31:16.372Z,20.30
2018-02-08T22:33:43.827Z,21.33
2018-02-08T22:36:11.292Z,22.27
2018-02-08T22:38:38.721Z,18.43
2018-02-08T22:41:07.034Z,23.37
2018-02-08T22:43:34.504Z,20.60
2018-02-08T22:46:01.962Z,21.57
2018-02-08T22:48:29.435Z,19.67
2018-02-08T22:50:56.918Z,23.40
2018-02-08T22:53:24.375Z,24.30
2018-02-08T22:55:51.828Z,21.40
2018-02-08T22:58:19.285Z,24.40
2018-02-08T23:00:46.746Z,20.23
2018-02-08T23:03:14.206Z,22.13
2018-02-08T23:05:41.669Z,21.67
2018-02-08T23:08:09.124Z,22.60
2018-02-08T23:10:36.586Z,22.97
2018-02-08T23:13:04.029Z,22.70
2018-02-08T23:15:32.277Z,22.70
2018-02-08T23:17:59.722Z,24.23
2018-02-08T23:20:27.190Z,23.23
2018-02-08T23:22:54.644Z,21.37
2018-02-08T23:25:22.100Z,24.00
2018-02-08T23:27:49.572Z,22.27
2018-02-08T23:30:17.027Z,22.27
2018-02-08T23:32:44.485Z,24.33
2018-02-08T23:35:11.936Z,23.37
2018-02-08T23:37:39.408Z,26.23
2018-02-08T23:40:06.869Z,23.53
2018-02-08T23:42:34.341Z,23.77
2018-02-08T23:45:01.780Z,23.03
2018-02-08T23:47:29.227Z,25.30
2018-02-08T23:49:56.676Z,27.20
2018-02-08T23:52:24.909Z,23.60
2018-02-08T23:54:52.372Z,24.10
2018-02-08T23:57:19.823Z,24.57
2018-02-08T23:59:47.285Z,23.37
